Time;durP1;ratioP1;P1;durP2;ratioP2;P2;SDS_P1;SDS_P2;PMS_P1;PMS_P2;Temp;Humidity;BMP_temperature;BMP_pressure;BME280_temperature;BME280_humidity;BME280_pressure;Samples;Min_cycle;Max_cycle;Signal;HPM_P1;HPM_P2
2023/10/23 00:02:01;;;;;;;4.33;0.67;;;;;;;16.71;62.24;98703.59;4973440;28;20041;-91
2023/10/23 00:04:26;;;;;;;4.30;0.40;;;;;;;16.76;62.26;98707.72;4972683;28;20027;-80
2023/10/23 00:06:52;;;;;;;5.00;0.40;;;;;;;16.78;62.13;98700.50;4953862;29;20044;-75
2023/10/23 00:09:17;;;;;;;4.93;0.53;;;;;;;16.80;61.98;98692.47;4953940;29;20483;-88
2023/10/23 00:11:42;;;;;;;3.83;0.77;;;;;;;16.80;62.21;98692.47;4953558;28;20039;-81
2023/10/23 00:14:08;;;;;;;5.60;0.60;;;;;;;16.81;62.28;98683.56;4963072;28;20035;-75
2023/10/23 00:16:34;;;;;;;4.45;0.45;;;;;;;16.81;62.27;98678.22;4973546;28;20514;-75
2023/10/23 00:18:59;;;;;;;4.83;0.40;;;;;;;16.83;62.06;98678.13;4972856;28;20034;-75
2023/10/23 00:21:24;;;;;;;4.38;0.40;;;;;;;16.87;61.99;98671.69;4976685;28;20031;-75
2023/10/23 00:23:50;;;;;;;4.03;0.40;;;;;;;16.96;61.67;98663.22;4974898;28;20031;-92
2023/10/23 00:26:16;;;;;;;5.37;0.70;;;;;;;16.95;62.24;98648.22;4973560;28;20040;-88
2023/10/23 00:28:41;;;;;;;5.82;0.40;;;;;;;16.94;61.84;98642.03;4955262;28;20117;-75
2023/10/23 00:31:07;;;;;;;3.67;0.40;;;;;;;16.94;62.07;98634.03;4991723;28;20106;-75
2023/10/23 00:33:32;;;;;;;3.23;0.50;;;;;;;16.93;61.84;98640.31;4992143;28;20458;-93
2023/10/23 00:35:58;;;;;;;4.82;0.45;;;;;;;16.94;61.79;98636.69;4993600;28;20042;-92
2023/10/23 00:38:23;;;;;;;4.47;0.60;;;;;;;17.01;61.84;98628.44;4994497;28;20446;-84
2023/10/23 00:40:48;;;;;;;4.37;0.60;;;;;;;17.01;61.77;98631.94;4994289;28;20086;-89
2023/10/23 00:43:20;;;;;;;5.10;0.60;;;;;;;17.06;61.96;98639.66;4976907;28;20030;-95
2023/10/23 00:46:12;;;;;;;4.00;0.40;;;;;;;17.05;61.66;98622.00;4976098;28;20455;-95
2023/10/23 00:48:38;;;;;;;9.13;0.40;;;;;;;17.11;61.76;98615.44;4963740;28;20059;-84
2023/10/23 00:51:05;;;;;;;4.83;0.50;;;;;;;17.10;62.00;98606.63;4972751;28;20030;-76
2023/10/23 00:53:36;;;;;;;6.30;0.52;;;;;;;17.11;62.29;98610.13;4971866;28;20038;-74
2023/10/23 00:56:06;;;;;;;5.38;0.50;;;;;;;17.12;62.32;98607.38;4972415;28;20041;-74
2023/10/23 00:58:33;;;;;;;2.97;0.40;;;;;;;17.18;62.22;98601.69;4972327;28;20093;-75
2023/10/23 01:01:01;;;;;;;6.90;0.60;;;;;;;17.13;62.76;98593.13;4969578;28;20034;-78
2023/10/23 01:03:26;;;;;;;8.95;0.60;;;;;;;17.12;63.30;98594.09;4959750;28;20045;-85
2023/10/23 01:05:52;;;;;;;7.07;1.00;;;;;;;17.20;63.35;98591.81;4973510;28;20043;-74
2023/10/23 01:08:18;;;;;;;4.93;0.50;;;;;;;17.18;63.31;98583.06;4972129;28;20039;-75
2023/10/23 01:10:44;;;;;;;5.63;0.50;;;;;;;17.25;63.39;98586.25;4971972;28;20110;-87
2023/10/23 01:13:10;;;;;;;5.00;0.50;;;;;;;17.20;63.78;98559.91;4972448;28;20289;-80
2023/10/23 01:15:35;;;;;;;4.88;0.50;;;;;;;17.27;63.95;98570.22;4970718;28;20027;-74
2023/10/23 01:18:02;;;;;;;4.33;0.60;;;;;;;17.28;64.18;98553.28;4970855;28;20043;-79
2023/10/23 01:20:28;;;;;;;6.95;0.60;;;;;;;17.28;64.40;98521.38;4971752;28;20015;-78
2023/10/23 01:22:58;;;;;;;6.65;0.60;;;;;;;17.27;64.81;98541.78;4972553;28;20407;-83
2023/10/23 01:25:23;;;;;;;4.93;0.60;;;;;;;17.29;64.79;98544.38;4971501;28;20034;-75
2023/10/23 01:27:49;;;;;;;9.15;0.40;;;;;;;17.27;65.12;98538.28;4971288;28;20515;-75
2023/10/23 01:30:14;;;;;;;6.43;0.60;;;;;;;17.30;65.33;98541.59;4985622;28;20026;-75
2023/10/23 01:32:39;;;;;;;8.40;0.80;;;;;;;17.29;65.93;98533.72;4983655;28;20023;-76
2023/10/23 01:35:05;;;;;;;7.07;0.63;;;;;;;17.30;66.39;98546.06;4961789;28;20126;-74
2023/10/23 01:37:31;;;;;;;9.77;0.80;;;;;;;17.33;66.70;98548.53;4952531;29;20027;-82
2023/10/23 01:39:56;;;;;;;5.07;0.60;;;;;;;17.32;66.58;98536.19;4952345;29;20023;-74
2023/10/23 01:42:22;;;;;;;7.75;0.90;;;;;;;17.31;66.92;98522.03;4952229;29;20393;-74
2023/10/23 01:44:47;;;;;;;8.73;0.77;;;;;;;17.29;67.16;98517.75;4935211;29;20570;-74
2023/10/23 01:47:13;;;;;;;9.47;0.70;;;;;;;17.28;67.32;98516.88;4951676;29;20110;-82
2023/10/23 01:49:38;;;;;;;7.53;0.93;;;;;;;17.26;67.58;98491.34;4959198;28;20105;-81
2023/10/23 01:52:04;;;;;;;5.22;0.50;;;;;;;17.31;67.47;98513.19;4971557;28;20048;-76
2023/10/23 01:54:29;;;;;;;9.77;0.93;;;;;;;17.31;67.76;98494.59;4964335;28;20031;-89
2023/10/23 01:56:55;;;;;;;10.67;0.83;;;;;;;17.32;67.71;98480.31;4972559;28;20026;-89
2023/10/23 01:59:20;;;;;;;8.87;1.30;;;;;;;17.31;68.36;98494.59;4972220;28;20076;-75
2023/10/23 02:01:45;;;;;;;6.22;0.60;;;;;;;17.30;68.60;98492.88;4971397;28;20403;-74
2023/10/23 02:04:11;;;;;;;7.63;0.63;;;;;;;17.30;68.88;98490.22;4971054;28;20121;-75
2023/10/23 02:06:36;;;;;;;7.03;0.97;;;;;;;17.30;69.21;98496.38;4970303;28;20582;-74
2023/10/23 02:09:02;;;;;;;8.27;1.00;;;;;;;17.21;69.71;98484.47;4970997;28;20050;-76
2023/10/23 02:11:28;;;;;;;6.78;0.77;;;;;;;17.26;69.70;98464.75;4971497;28;20023;-75
2023/10/23 02:13:53;;;;;;;10.30;0.70;;;;;;;17.26;69.94;98462.09;4971946;28;20546;-80
2023/10/23 02:16:19;;;;;;;5.27;0.60;;;;;;;17.24;70.04;98445.34;4973698;28;20030;-90
2023/10/23 02:18:44;;;;;;;6.10;0.80;;;;;;;17.17;70.50;98451.03;4975370;28;20443;-74
2023/10/23 02:21:10;;;;;;;10.03;1.30;;;;;;;17.18;70.99;98447.44;4958417;28;20042;-91
2023/10/23 02:23:35;;;;;;;6.68;1.00;;;;;;;17.18;71.05;98447.44;4968946;28;20073;-81
2023/10/23 02:26:02;;;;;;;8.13;0.87;;;;;;;17.18;70.74;98442.09;4955710;28;20073;-87
2023/10/23 02:28:28;;;;;;;8.98;0.90;;;;;;;17.20;71.07;98439.38;4956588;29;20061;-75
2023/10/23 02:30:54;;;;;;;6.80;0.68;;;;;;;17.21;71.17;98422.47;4991516;28;20030;-74
2023/10/23 02:33:19;;;;;;;8.93;0.90;;;;;;;17.20;71.56;98421.59;4993726;28;20029;-89
2023/10/23 02:35:44;;;;;;;9.50;0.83;;;;;;;17.21;71.16;98428.63;4994361;28;20486;-78
2023/10/23 02:38:10;;;;;;;9.13;1.00;;;;;;;17.23;71.37;98417.91;4993592;28;20050;-74
2023/10/23 02:40:35;;;;;;;7.47;0.93;;;;;;;17.24;71.61;98429.38;4988332;28;20059;-88
2023/10/23 02:43:01;;;;;;;9.33;0.93;;;;;;;17.22;72.00;98421.50;4973825;28;20594;-75
2023/10/23 02:45:26;;;;;;;7.37;0.83;;;;;;;17.21;72.06;98420.63;4974731;28;20077;-76
2023/10/23 02:47:53;;;;;;;6.30;0.70;;;;;;;17.21;72.34;98410.00;4975618;28;20078;-91
2023/10/23 02:50:19;;;;;;;9.52;1.17;;;;;;;17.27;72.25;98406.13;4957463;28;20026;-86
2023/10/23 02:52:44;;;;;;;9.88;0.93;;;;;;;17.35;72.12;98384.34;4974762;28;20046;-90
2023/10/23 02:55:10;;;;;;;11.07;1.00;;;;;;;17.34;72.44;98385.31;4975009;28;20027;-78
2023/10/23 02:57:35;;;;;;;10.93;1.10;;;;;;;17.34;72.32;98382.66;4974426;28;20027;-84
2023/10/23 03:00:01;;;;;;;12.07;0.90;;;;;;;17.34;72.43;98372.00;4967240;28;20282;-89
2023/10/23 03:02:26;;;;;;;12.97;1.50;;;;;;;17.31;72.71;98366.88;4975880;28;20039;-92
2023/10/23 03:04:52;;;;;;;9.88;0.90;;;;;;;17.34;72.52;98361.38;4959121;28;20030;-87
2023/10/23 03:07:17;;;;;;;9.63;0.90;;;;;;;17.35;72.32;98355.94;4976940;28;20031;-93
2023/10/23 03:09:42;;;;;;;6.97;0.80;;;;;;;17.36;72.26;98338.19;4976919;28;20119;-87
2023/10/23 03:12:08;;;;;;;11.50;1.10;;;;;;;17.31;72.64;98357.09;4979629;28;20034;-88
2023/10/23 03:14:33;;;;;;;13.77;1.07;;;;;;;17.44;72.10;98314.59;4956643;28;20031;-86
2023/10/23 03:16:59;;;;;;;9.87;1.00;;;;;;;17.43;72.04;98314.72;4977297;28;20317;-91
2023/10/23 03:19:25;;;;;;;8.43;0.70;;;;;;;17.45;71.85;98315.47;4973769;28;20037;-83
2023/10/23 03:21:51;;;;;;;11.07;1.00;;;;;;;17.48;71.95;98318.78;4973247;28;20031;-75
2023/10/23 03:24:18;;;;;;;7.82;0.90;;;;;;;17.44;72.11;98303.94;4973460;28;20030;-81
2023/10/23 03:26:43;;;;;;;10.52;0.80;;;;;;;17.46;72.11;98317.16;4973690;28;20046;-87
2023/10/23 03:29:09;;;;;;;10.73;1.13;;;;;;;17.36;72.46;98303.59;4972700;28;20063;-75
2023/10/23 03:31:35;;;;;;;8.07;0.80;;;;;;;17.45;71.97;98302.16;4970213;28;20046;-82
2023/10/23 03:34:00;;;;;;;9.50;1.13;;;;;;;17.46;72.00;98302.03;4954418;28;20030;-82
2023/10/23 03:36:25;;;;;;;9.93;1.10;;;;;;;17.52;71.70;98311.44;4937697;29;20495;-75
2023/10/23 03:38:51;;;;;;;8.85;0.80;;;;;;;17.49;71.61;98304.53;4954870;29;20103;-86
2023/10/23 03:41:16;;;;;;;8.27;0.73;;;;;;;17.51;71.39;98344.34;4954373;29;20427;-81
2023/10/23 03:43:42;;;;;;;9.67;1.33;;;;;;;17.55;71.18;98310.41;4954630;29;20027;-74
2023/10/23 03:46:07;;;;;;;8.63;0.77;;;;;;;17.48;71.21;98304.63;4958528;28;20402;-89
2023/10/23 03:48:36;;;;;;;8.48;0.90;;;;;;;17.50;71.01;98308.03;4973322;28;20030;-85
2023/10/23 03:51:02;;;;;;;8.83;1.00;;;;;;;17.47;70.84;98303.75;4961346;28;20488;-88
2023/10/23 03:53:27;;;;;;;8.90;1.27;;;;;;;17.48;70.63;98305.47;4954544;29;20031;-89
2023/10/23 03:55:53;;;;;;;5.00;0.70;;;;;;;17.49;70.37;98312.50;4936421;29;20031;-84
2023/10/23 03:58:18;;;;;;;5.85;0.63;;;;;;;17.53;70.19;98307.00;4954433;29;20031;-76
2023/10/23 04:00:44;;;;;;;7.90;1.13;;;;;;;17.56;69.85;98312.09;4953926;29;20039;-80
2023/10/23 04:03:11;;;;;;;8.27;1.00;;;;;;;17.50;69.95;98310.69;4958963;28;20038;-91
2023/10/23 04:05:40;;;;;;;9.40;0.88;;;;;;;17.52;69.76;98315.94;4973135;28;20050;-87
2023/10/23 04:08:06;;;;;;;7.82;0.90;;;;;;;17.56;69.65;98296.16;4966414;28;20082;-90
2023/10/23 04:10:31;;;;;;;4.83;0.50;;;;;;;17.59;69.57;98286.13;4955329;28;20023;-88
2023/10/23 04:12:57;;;;;;;6.28;0.73;;;;;;;17.60;69.58;98284.34;4957364;28;20399;-74
2023/10/23 04:15:26;;;;;;;6.50;0.60;;;;;;;17.62;69.24;98271.78;4984493;28;20105;-75
2023/10/23 04:17:52;;;;;;;9.07;0.82;;;;;;;17.60;69.41;98253.28;4983361;28;20023;-80
2023/10/23 04:20:17;;;;;;;7.25;0.63;;;;;;;17.55;69.71;98254.53;4978824;28;20116;-77
2023/10/23 04:22:43;;;;;;;9.70;0.77;;;;;;;17.54;69.92;98260.78;4978365;28;20050;-75
2023/10/23 04:25:09;;;;;;;10.30;1.30;;;;;;;17.57;69.76;98265.91;4976068;28;20039;-75
2023/10/23 04:27:35;;;;;;;6.68;0.80;;;;;;;17.58;69.85;98262.31;4973513;28;20027;-75
2023/10/23 04:30:01;;;;;;;9.00;1.00;;;;;;;17.59;69.63;98270.16;4973375;28;20049;-76
2023/10/23 04:32:27;;;;;;;11.13;0.97;;;;;;;17.62;69.58;98258.47;4972684;28;20019;-87
2023/10/23 04:34:52;;;;;;;7.75;0.70;;;;;;;17.62;69.75;98243.38;4972949;28;20542;-77
2023/10/23 04:37:18;;;;;;;10.23;0.98;;;;;;;17.60;69.92;98245.28;4972595;28;20109;-74
2023/10/23 04:39:43;;;;;;;9.97;1.20;;;;;;;17.57;70.89;98236.63;4968545;28;20023;-85
2023/10/23 04:42:09;;;;;;;13.93;1.00;;;;;;;17.62;70.68;98255.81;4953653;28;20046;-85
2023/10/23 04:44:34;;;;;;;8.17;0.90;;;;;;;17.65;70.81;98268.91;4954505;29;20091;-87
2023/10/23 04:47:00;;;;;;;13.80;1.47;;;;;;;17.61;71.20;98256.78;4953347;29;20275;-78
2023/10/23 04:49:25;;;;;;;13.27;1.13;;;;;;;17.58;71.78;98254.31;4953826;29;20039;-90
2023/10/23 04:51:50;;;;;;;10.40;1.33;;;;;;;17.61;71.67;98262.09;4954254;29;20027;-82
2023/10/23 04:54:16;;;;;;;10.98;1.05;;;;;;;17.63;72.14;98244.22;4970594;28;20042;-74
2023/10/23 04:56:42;;;;;;;13.43;1.30;;;;;;;17.56;72.35;98238.44;4971585;28;20045;-74
2023/10/23 04:59:07;;;;;;;9.73;1.27;;;;;;;17.63;72.25;98233.56;4972471;28;20030;-77
2023/10/23 05:01:33;;;;;;;12.50;1.30;;;;;;;17.61;72.68;98241.66;4971534;28;20062;-88
2023/10/23 05:03:59;;;;;;;13.18;1.50;;;;;;;17.66;72.68;98238.69;4967080;28;20023;-77
2023/10/23 05:06:28;;;;;;;12.50;1.20;;;;;;;17.62;73.13;98246.03;4956333;29;20443;-77
2023/10/23 05:08:54;;;;;;;12.63;1.20;;;;;;;17.67;72.95;98245.72;4958861;29;20075;-76
2023/10/23 05:11:20;;;;;;;10.82;1.00;;;;;;;17.65;73.62;98229.84;4952533;29;20058;-77
2023/10/23 05:13:49;;;;;;;9.70;1.20;;;;;;;17.69;73.64;98238.47;4960108;28;20035;-82
2023/10/23 05:16:15;;;;;;;8.63;1.10;;;;;;;17.67;73.53;98234.22;4972734;28;20019;-85
2023/10/23 05:18:40;;;;;;;14.67;1.10;;;;;;;17.69;74.05;98213.69;4971393;28;20045;-92
2023/10/23 05:21:07;;;;;;;19.92;2.00;;;;;;;17.72;74.10;98237.44;4973485;28;20034;-77
2023/10/23 05:23:32;;;;;;;11.55;1.30;;;;;;;17.74;74.15;98230.19;4972707;28;20053;-94
2023/10/23 05:25:58;;;;;;;10.97;0.90;;;;;;;17.72;74.54;98248.06;4973567;28;20034;-89
2023/10/23 05:28:23;;;;;;;16.57;1.40;;;;;;;17.79;74.68;98238.72;4971692;28;20062;-93
2023/10/23 05:30:51;;;;;;;12.77;1.30;;;;;;;17.84;74.26;98225.13;4988398;28;20184;-83
2023/10/23 05:33:17;;;;;;;11.20;1.73;;;;;;;17.82;74.65;98237.69;4974003;28;20053;-76
2023/10/23 05:35:43;;;;;;;15.40;2.00;;;;;;;17.87;74.82;98227.56;4970952;28;20034;-88
2023/10/23 05:38:08;;;;;;;12.68;1.60;;;;;;;17.96;74.41;98218.94;4971904;28;20033;-91
2023/10/23 05:40:34;;;;;;;13.03;1.47;;;;;;;17.94;74.65;98221.72;4970888;28;20551;-74
2023/10/23 05:42:59;;;;;;;11.10;1.25;;;;;;;17.99;74.81;98234.75;4970241;28;20038;-76
2023/10/23 05:45:24;;;;;;;12.23;1.60;;;;;;;18.08;74.40;98218.16;4971259;28;20546;-79
2023/10/23 05:47:50;;;;;;;16.20;1.60;;;;;;;18.04;74.83;98232.66;4967737;28;20055;-74
2023/10/23 05:50:15;;;;;;;19.03;1.73;;;;;;;18.06;74.80;98225.41;4952271;28;20058;-90
2023/10/23 05:52:41;;;;;;;14.30;1.77;;;;;;;18.08;75.09;98231.47;4956365;29;20133;-86
2023/10/23 05:55:08;;;;;;;11.27;1.40;;;;;;;18.15;74.78;98210.59;4956224;29;20063;-88
2023/10/23 05:57:34;;;;;;;18.07;1.63;;;;;;;18.14;74.75;98213.38;4957090;29;20027;-86
2023/10/23 05:59:59;;;;;;;14.88;1.60;;;;;;;18.15;75.15;98212.41;4957094;29;20039;-92
2023/10/23 06:02:25;;;;;;;16.10;1.40;;;;;;;18.24;75.01;98219.78;4974261;28;20027;-87
2023/10/23 06:04:50;;;;;;;15.75;1.65;;;;;;;18.24;75.03;98227.78;4983971;28;20038;-83
2023/10/23 06:07:16;;;;;;;16.83;1.83;;;;;;;18.25;75.42;98223.28;4971514;28;20035;-85
2023/10/23 06:09:41;;;;;;;12.67;1.20;;;;;;;18.31;75.25;98221.06;4961586;29;20147;-96
2023/10/23 06:12:09;;;;;;;18.13;2.40;;;;;;;18.34;75.22;98217.34;4958406;29;20074;-92
2023/10/23 06:14:34;;;;;;;16.02;1.83;;;;;;;18.39;75.11;98233.00;4969901;28;20554;-77
2023/10/23 06:17:01;;;;;;;15.10;1.70;;;;;;;18.37;75.14;98243.78;4976327;28;20039;-89
2023/10/23 06:19:26;;;;;;;15.90;1.58;;;;;;;18.42;75.22;98232.78;4948883;28;20023;-82
2023/10/23 06:21:52;;;;;;;16.80;2.00;;;;;;;18.44;75.29;98228.19;4968335;28;20027;-83
2023/10/23 06:24:17;;;;;;;20.50;1.93;;;;;;;18.42;75.39;98219.44;4966832;28;20542;-92
2023/10/23 06:26:43;;;;;;;20.30;2.03;;;;;;;18.49;75.14;98237.56;4970731;28;20050;-77
2023/10/23 06:29:08;;;;;;;15.02;2.28;;;;;;;18.46;75.11;98227.13;4978158;28;20422;-83
2023/10/23 06:31:33;;;;;;;19.13;3.00;;;;;;;18.47;75.48;98249.31;4975978;28;20034;-85
2023/10/23 06:34:02;;;;;;;21.43;1.90;;;;;;;18.55;74.80;98262.97;4976862;28;20059;-92
2023/10/23 06:36:30;;;;;;;19.67;2.20;;;;;;;18.61;74.54;98257.19;4993593;28;20027;-92
2023/10/23 06:38:56;;;;;;;20.63;2.38;;;;;;;18.61;74.65;98243.88;4979761;28;20406;-94
2023/10/23 06:41:21;;;;;;;15.13;2.00;;;;;;;18.71;74.79;98267.22;4976576;28;20087;-77
2023/10/23 06:43:46;;;;;;;21.13;2.33;;;;;;;18.68;74.76;98288.75;4964186;28;20061;-84
2023/10/23 06:46:12;;;;;;;24.07;2.60;;;;;;;18.69;74.80;98287.78;4959306;29;20032;-78
2023/10/23 06:48:44;;;;;;;17.63;1.90;;;;;;;18.75;74.56;98303.38;4961080;29;20023;-78
2023/10/23 06:51:12;;;;;;;28.17;3.43;;;;;;;18.73;74.96;98307.97;4959121;29;20034;-91
2023/10/23 06:53:37;;;;;;;20.33;2.58;;;;;;;18.76;74.73;98318.41;4960606;28;20094;-78
2023/10/23 06:56:02;;;;;;;21.07;2.93;;;;;;;18.80;74.82;98315.41;4977451;28;20471;-90
2023/10/23 06:58:28;;;;;;;20.50;1.90;;;;;;;18.86;74.91;98324.81;4975703;28;20023;-80
2023/10/23 07:00:53;;;;;;;21.00;2.97;;;;;;;18.90;74.75;98347.63;4974180;28;20527;-78
2023/10/23 07:03:19;;;;;;;19.57;2.23;;;;;;;18.86;74.54;98363.97;4975763;28;20033;-79
2023/10/23 07:05:45;;;;;;;21.25;2.10;;;;;;;18.89;74.60;98348.59;4973889;28;20049;-77
2023/10/23 07:08:11;;;;;;;23.07;3.30;;;;;;;18.87;74.85;98347.00;4974065;28;20031;-79
2023/10/23 07:10:37;;;;;;;22.67;2.58;;;;;;;18.94;74.74;98365.16;4976038;28;20015;-78
2023/10/23 07:13:03;;;;;;;24.67;2.97;;;;;;;18.93;75.11;98374.09;4976680;28;20159;-91
2023/10/23 07:15:32;;;;;;;20.20;2.57;;;;;;;18.94;75.23;98391.81;4975516;28;20068;-80
2023/10/23 07:17:57;;;;;;;19.75;2.17;;;;;;;18.94;75.13;98391.81;4974771;28;20491;-78
2023/10/23 07:20:23;;;;;;;21.57;2.23;;;;;;;18.98;75.42;98399.59;4975423;28;20035;-78
2023/10/23 07:22:48;;;;;;;20.37;2.33;;;;;;;18.95;73.77;98414.00;4974335;28;20027;-76
2023/10/23 07:25:14;;;;;;;13.70;1.67;;;;;;;18.74;70.44;98421.66;4974816;28;20274;-76
2023/10/23 07:27:39;;;;;;;14.60;1.67;;;;;;;18.47;69.18;98441.22;4974717;28;20039;-77
2023/10/23 07:30:05;;;;;;;9.97;1.60;;;;;;;18.15;67.91;98457.47;4973574;28;20046;-76
2023/10/23 07:32:31;;;;;;;8.65;1.17;;;;;;;17.87;67.12;98476.06;4974533;28;20168;-78
2023/10/23 07:34:56;;;;;;;8.53;1.23;;;;;;;17.56;65.93;98485.09;4978034;28;20054;-82
2023/10/23 07:37:22;;;;;;;6.13;1.15;;;;;;;17.24;64.80;98503.84;4977498;28;20027;-78
2023/10/23 07:39:48;;;;;;;7.60;1.13;;;;;;;17.11;65.32;98519.69;4975140;28;20031;-77
2023/10/23 07:42:15;;;;;;;5.37;1.00;;;;;;;16.90;65.35;98517.34;4976371;28;20302;-78
2023/10/23 07:44:41;;;;;;;6.63;0.75;;;;;;;16.86;65.81;98514.00;4974574;28;20027;-87
2023/10/23 07:47:07;;;;;;;9.20;1.42;;;;;;;16.79;65.55;98516.16;4955276;28;20093;-78
2023/10/23 07:49:32;;;;;;;5.43;0.70;;;;;;;16.77;65.62;98525.19;4969851;28;20039;-78
2023/10/23 07:51:57;;;;;;;6.97;1.00;;;;;;;16.81;65.81;98524.03;4938768;29;20031;-77
2023/10/23 07:54:23;;;;;;;10.40;1.00;;;;;;;16.89;66.05;98532.44;4963334;28;20473;-78
2023/10/23 07:56:48;;;;;;;7.83;0.90;;;;;;;16.94;65.89;98546.31;4972038;28;20041;-77
2023/10/23 07:59:14;;;;;;;7.13;1.30;;;;;;;17.02;65.62;98537.06;4972486;28;20444;-84
2023/10/23 08:01:39;;;;;;;6.43;1.10;;;;;;;17.06;65.40;98554.56;4972624;28;20431;-90
2023/10/23 08:04:05;;;;;;;5.77;0.90;;;;;;;17.14;65.50;98546.13;4972508;28;20030;-78
2023/10/23 08:06:30;;;;;;;5.70;0.90;;;;;;;17.15;64.92;98559.31;4971310;28;20654;-78
2023/10/23 08:08:57;;;;;;;5.70;1.10;;;;;;;17.15;64.97;98559.31;4972580;28;20049;-78
2023/10/23 08:11:22;;;;;;;5.30;0.90;;;;;;;17.12;65.13;98566.63;4973061;28;20058;-78
2023/10/23 08:13:47;;;;;;;5.47;0.87;;;;;;;17.07;64.82;98566.91;4974440;28;20070;-78
2023/10/23 08:16:13;;;;;;;7.22;1.08;;;;;;;17.05;64.74;98579.44;4975461;28;20030;-78
2023/10/23 08:18:39;;;;;;;6.90;1.10;;;;;;;17.01;65.07;98591.19;4975497;28;20560;-79
2023/10/23 08:21:12;;;;;;;7.03;1.23;;;;;;;16.91;64.71;98594.34;4979815;28;20109;-79
2023/10/23 08:23:41;;;;;;;8.03;1.10;;;;;;;16.88;65.10;98607.81;4974987;28;20035;-77
2023/10/23 08:26:06;;;;;;;8.20;1.00;;;;;;;16.88;65.40;98610.47;4965942;28;20027;-78
2023/10/23 08:28:32;;;;;;;9.02;1.20;;;;;;;16.88;65.25;98605.16;4970954;28;20384;-78
2023/10/23 08:30:57;;;;;;;10.67;1.73;;;;;;;16.88;65.21;98623.75;4979124;28;20019;-78
2023/10/23 08:33:22;;;;;;;4.93;1.13;;;;;;;16.84;65.11;98624.88;4977324;28;20050;-78
2023/10/23 08:35:48;;;;;;;9.10;1.40;;;;;;;16.82;65.25;98637.41;4958743;28;20027;-78
2023/10/23 08:38:13;;;;;;;8.18;1.27;;;;;;;16.84;65.36;98640.84;4976402;28;20027;-78
2023/10/23 08:40:39;;;;;;;7.80;1.47;;;;;;;16.82;65.22;98642.72;4972803;28;20181;-78
2023/10/23 08:43:05;;;;;;;10.90;1.63;;;;;;;16.77;65.59;98650.94;4973249;28;20146;-78
2023/10/23 08:45:31;;;;;;;8.73;1.55;;;;;;;16.78;65.34;98657.13;4974128;28;20034;-78
2023/10/23 08:47:57;;;;;;;9.57;1.30;;;;;;;16.76;65.42;98662.53;4972028;28;20035;-78
2023/10/23 08:50:24;;;;;;;10.80;1.50;;;;;;;16.76;65.60;98670.50;4969116;28;20033;-78
2023/10/23 08:52:59;;;;;;;8.48;1.58;;;;;;;16.80;65.47;98676.53;4958123;28;20035;-78
2023/10/23 08:55:28;;;;;;;10.73;1.80;;;;;;;16.88;65.42;98682.25;4972607;28;20035;-78
2023/10/23 08:57:54;;;;;;;12.10;1.60;;;;;;;16.94;65.31;98679.25;4975557;28;20027;-77
2023/10/23 09:00:24;;;;;;;7.70;1.40;;;;;;;16.98;64.94;98679.97;4976741;28;20114;-85
2023/10/23 09:02:50;;;;;;;9.43;1.65;;;;;;;17.04;64.96;98692.91;4976530;28;20081;-78
2023/10/23 09:05:16;;;;;;;6.50;1.52;;;;;;;17.02;64.81;98693.97;4973682;28;20054;-78
2023/10/23 09:07:41;;;;;;;7.23;1.10;;;;;;;17.01;65.10;98694.91;4971901;28;20035;-77
2023/10/23 09:10:07;;;;;;;7.83;1.47;;;;;;;17.00;65.36;98687.84;4971919;28;20030;-78
2023/10/23 09:12:34;;;;;;;8.63;1.13;;;;;;;16.97;64.98;98702.16;4971947;28;20105;-78
2023/10/23 09:15:21;;;;;;;5.82;1.30;;;;;;;16.92;65.02;98706.88;4971461;28;20047;-78
2023/10/23 09:17:53;;;;;;;7.05;1.23;;;;;;;16.96;65.17;98712.88;4970949;28;20069;-78
2023/10/23 09:20:23;;;;;;;8.80;1.50;;;;;;;16.88;65.26;98706.19;4975307;28;20058;-77
2023/10/23 09:22:48;;;;;;;8.77;1.70;;;;;;;16.86;65.44;98716.03;4976787;28;20034;-76
2023/10/23 09:25:23;;;;;;;8.18;1.60;;;;;;;16.94;65.36;98719.13;4955073;28;20024;-78
2023/10/23 09:27:49;;;;;;;5.67;1.40;;;;;;;16.98;65.19;98721.63;4963820;28;20023;-78
2023/10/23 09:30:20;;;;;;;9.30;1.42;;;;;;;17.00;65.09;98720.63;4989148;28;20026;-78
2023/10/23 09:32:53;;;;;;;8.50;1.20;;;;;;;16.99;65.05;98726.03;4994367;28;20030;-78
2023/10/23 09:35:18;;;;;;;8.75;1.30;;;;;;;17.00;65.24;98720.63;4994153;28;20545;-77
2023/10/23 09:37:44;;;;;;;7.73;1.40;;;;;;;17.07;65.35;98742.44;4999252;28;20030;-79
2023/10/23 09:40:12;;;;;;;6.55;1.45;;;;;;;17.07;64.98;98748.59;5004384;28;20126;-78
2023/10/23 09:42:39;;;;;;;7.10;1.40;;;;;;;17.06;64.70;98751.34;4982255;28;20046;-88
2023/10/23 09:45:05;;;;;;;7.77;1.50;;;;;;;17.05;64.94;98750.47;4968600;28;20023;-77
2023/10/23 09:47:35;;;;;;;8.05;1.90;;;;;;;17.06;65.03;98757.50;4965014;29;20031;-78
2023/10/23 09:50:04;;;;;;;7.97;2.00;;;;;;;17.05;64.87;98765.59;4960234;29;20031;-78
2023/10/23 09:52:39;;;;;;;10.65;2.00;;;;;;;17.06;64.77;98756.66;4958765;29;20038;-79
2023/10/23 09:55:07;;;;;;;10.97;2.57;;;;;;;17.13;64.75;98773.16;4976488;28;20105;-87
2023/10/23 09:57:33;;;;;;;9.85;2.90;;;;;;;17.14;64.43;98780.19;4981078;28;20441;-78
2023/10/23 10:00:07;;;;;;;7.70;3.15;;;;;;;17.12;64.26;98774.94;4981666;28;20038;-79
2023/10/23 10:02:38;;;;;;;10.38;3.33;;;;;;;17.23;64.24;98774.34;4981310;28;20047;-77
2023/10/23 10:05:18;;;;;;;11.95;3.03;;;;;;;17.39;64.00;98777.00;4967952;28;20418;-77
2023/10/23 10:08:04;;;;;;;7.77;4.00;;;;;;;17.53;63.42;98780.69;4976740;28;20023;-78
2023/10/23 10:10:32;;;;;;;8.52;3.40;;;;;;;17.64;63.31;98787.13;4975274;28;20038;-78
2023/10/23 10:12:58;;;;;;;10.73;3.88;;;;;;;17.69;63.13;98804.63;4975456;28;20031;-81
2023/10/23 10:15:24;;;;;;;7.95;3.75;;;;;;;17.71;62.78;98795.59;4958696;28;20030;-79
2023/10/23 10:17:51;;;;;;;7.33;3.60;;;;;;;17.78;62.92;98796.97;4977655;28;20085;-78
2023/10/23 10:20:24;;;;;;;10.33;4.03;;;;;;;18.02;62.47;98803.66;4980227;28;20282;-79
2023/10/23 10:22:58;;;;;;;8.20;3.40;;;;;;;18.09;62.38;98810.34;4967642;28;20059;-78
2023/10/23 10:25:26;;;;;;;7.90;3.55;;;;;;;18.16;62.16;98811.69;4980555;28;20031;-78
2023/10/23 10:27:59;;;;;;;7.68;3.00;;;;;;;18.17;61.91;98808.09;4977491;28;20118;-78
2023/10/23 10:30:43;;;;;;;9.55;2.80;;;;;;;18.21;61.88;98819.44;4968951;28;20095;-84
2023/10/23 10:33:30;;;;;;;6.33;2.67;;;;;;;18.21;62.10;98820.28;4968673;28;20023;-77
2023/10/23 10:36:07;;;;;;;11.63;3.40;;;;;;;18.17;61.85;98817.88;4975799;28;20025;-78
2023/10/23 10:38:34;;;;;;;7.82;2.90;;;;;;;18.04;62.45;98823.94;4976411;28;20083;-78
2023/10/23 10:41:17;;;;;;;8.63;2.85;;;;;;;18.01;62.38;98829.44;4967782;28;20046;-77
2023/10/23 10:43:49;;;;;;;8.75;2.78;;;;;;;17.94;62.70;98828.03;4961374;28;20412;-78
2023/10/23 10:46:24;;;;;;;7.33;2.70;;;;;;;17.90;62.64;98850.47;4964617;28;20023;-77
2023/10/23 10:48:51;;;;;;;7.88;2.50;;;;;;;17.86;62.95;98857.78;4963954;28;20145;-77
2023/10/23 10:51:19;;;;;;;6.05;2.25;;;;;;;17.88;62.99;98855.03;4973558;28;20043;-76
2023/10/23 10:53:54;;;;;;;5.55;1.92;;;;;;;17.86;62.93;98851.59;4960884;28;20518;-82
2023/10/23 10:56:20;;;;;;;7.88;2.28;;;;;;;17.80;63.19;98847.47;4962305;28;20045;-76
2023/10/23 10:58:45;;;;;;;10.20;2.40;;;;;;;17.81;62.98;98862.50;4961920;28;20026;-76
2023/10/23 11:01:11;;;;;;;7.25;1.83;;;;;;;17.81;63.10;98870.47;4968753;28;20019;-81
2023/10/23 11:03:37;;;;;;;9.40;2.40;;;;;;;17.81;63.07;98870.47;4963621;28;20039;-76
2023/10/23 11:06:04;;;;;;;10.90;1.75;;;;;;;17.86;63.00;98872.91;4965440;28;20054;-76
2023/10/23 11:08:29;;;;;;;10.05;1.92;;;;;;;17.90;62.90;98869.97;4967099;28;20022;-76
2023/10/23 11:11:04;;;;;;;7.17;2.00;;;;;;;17.96;62.78;98863.41;4962775;28;20534;-78
2023/10/23 11:13:30;;;;;;;8.02;1.60;;;;;;;18.03;62.83;98862.19;4964762;28;20045;-76
2023/10/23 11:15:56;;;;;;;7.00;2.10;;;;;;;18.07;62.89;98855.72;4966354;28;20038;-85
2023/10/23 11:18:22;;;;;;;11.80;3.65;;;;;;;18.07;62.49;98869.03;4961389;28;20028;-75
2023/10/23 11:20:48;;;;;;;8.75;2.45;;;;;;;18.04;62.47;98879.88;4961958;28;20484;-75
2023/10/23 11:23:14;;;;;;;7.10;1.90;;;;;;;18.03;62.27;98879.94;4964131;28;20038;-86
2023/10/23 11:25:40;;;;;;;6.68;1.50;;;;;;;18.01;62.16;98888.03;4966037;28;20033;-77
2023/10/23 11:28:05;;;;;;;8.00;1.47;;;;;;;17.98;62.31;98880.19;4964647;28;20653;-87
2023/10/23 11:30:31;;;;;;;5.82;1.40;;;;;;;17.97;62.33;98894.47;4965136;28;20491;-81